createdAt,value
2023-08-05T00:04:11.605Z,24.06
2023-08-05T00:09:17.152Z,23.91
2023-08-05T00:14:22.961Z,23.86
2023-08-05T00:19:28.531Z,23.90
2023-08-05T00:24:34.147Z,23.94
2023-08-05T00:29:39.785Z,23.95
2023-08-05T00:34:45.330Z,23.93
2023-08-05T00:39:50.932Z,23.85
2023-08-05T00:44:56.945Z,23.82
2023-08-05T00:50:02.957Z,23.76
2023-08-05T00:55:09.454Z,23.70
2023-08-05T01:00:15.309Z,23.69
2023-08-05T01:05:22.729Z,23.65
2023-08-05T01:10:28.733Z,23.56
2023-08-05T01:15:34.364Z,23.55
2023-08-05T01:20:46.935Z,23.49
2023-08-05T01:25:54.598Z,23.53
2023-08-05T01:31:02.704Z,23.37
2023-08-05T01:36:08.450Z,23.39
2023-08-05T01:41:14.388Z,23.44
2023-08-05T01:46:20.169Z,23.50
2023-08-05T01:51:26.779Z,23.58
2023-08-05T01:56:32.586Z,23.80
2023-08-05T02:01:46.981Z,24.14
2023-08-05T02:06:53.137Z,24.37
2023-08-05T02:11:58.980Z,24.74
2023-08-05T02:17:05.458Z,25.00
2023-08-05T02:22:11.214Z,25.31
2023-08-05T02:27:17.102Z,25.55
2023-08-05T02:32:22.790Z,25.78
2023-08-05T02:37:29.550Z,26.14
2023-08-05T02:42:36.081Z,26.63
2023-08-05T02:47:41.825Z,26.98
2023-08-05T02:52:47.388Z,27.18
2023-08-05T02:57:53.202Z,27.31
2023-08-05T03:02:58.874Z,27.43
2023-08-05T03:08:04.989Z,27.81
2023-08-05T03:13:10.999Z,28.12
2023-08-05T03:18:17.490Z,28.33
2023-08-05T03:23:24.272Z,28.63
2023-08-05T03:28:35.646Z,28.70
2023-08-05T03:33:44.442Z,28.74
2023-08-05T03:38:53.583Z,29.17
2023-08-05T03:44:00.283Z,29.50
2023-08-05T03:49:06.938Z,29.69
2023-08-05T03:54:12.502Z,29.88
2023-08-05T03:59:18.194Z,30.03
2023-08-05T04:04:23.638Z,30.09
2023-08-05T04:09:30.685Z,30.26
2023-08-05T04:14:39.220Z,30.50
2023-08-05T04:19:46.899Z,30.78
2023-08-05T04:24:53.515Z,30.94
2023-08-05T04:29:59.908Z,31.20
2023-08-05T04:35:06.039Z,31.69
2023-08-05T04:40:12.547Z,32.23
2023-08-05T04:45:18.100Z,32.66
2023-08-05T04:50:24.201Z,33.16
2023-08-05T04:55:29.783Z,33.40
2023-08-05T05:00:35.421Z,33.83
2023-08-05T05:05:46.839Z,34.13
2023-08-05T05:10:52.672Z,34.74
2023-08-05T05:15:58.593Z,35.32
2023-08-05T05:21:04.223Z,35.39
2023-08-05T05:26:09.818Z,35.35
2023-08-05T05:31:15.399Z,35.96
2023-08-05T05:36:21.140Z,36.51
2023-08-05T05:41:26.661Z,37.32
2023-08-05T05:46:35.228Z,38.02
2023-08-05T05:51:40.908Z,38.18
2023-08-05T05:56:46.472Z,38.75
2023-08-05T06:01:51.990Z,38.57
2023-08-05T06:06:57.685Z,38.90
2023-08-05T06:12:03.710Z,38.82
2023-08-05T06:17:08.956Z,38.48
2023-08-05T06:22:14.873Z,37.79
2023-08-05T06:27:20.459Z,37.02
2023-08-05T06:32:26.064Z,36.28
2023-08-05T06:37:31.536Z,35.57
2023-08-05T06:42:37.134Z,35.52
2023-08-05T06:47:42.694Z,34.88
2023-08-05T06:52:48.330Z,34.55
2023-08-05T06:57:54.317Z,34.63
2023-08-05T07:03:00.136Z,34.38
2023-08-05T07:08:05.902Z,34.59
2023-08-05T07:13:11.623Z,34.37
2023-08-05T07:18:17.287Z,33.99
2023-08-05T07:23:22.807Z,33.55
2023-08-05T07:28:28.228Z,33.90
2023-08-05T07:33:33.822Z,33.45
2023-08-05T07:38:44.091Z,33.57
2023-08-05T07:43:52.705Z,33.89
2023-08-05T07:49:00.520Z,33.88
2023-08-05T07:54:05.989Z,33.95
2023-08-05T07:59:17.458Z,34.23
2023-08-05T08:04:23.615Z,34.27
2023-08-05T08:09:29.500Z,34.35
2023-08-05T08:14:35.061Z,34.13
2023-08-05T08:19:40.249Z,34.30
2023-08-05T08:24:45.571Z,34.45
2023-08-05T08:29:50.932Z,34.41
2023-08-05T08:34:56.508Z,34.52
2023-08-05T08:40:02.142Z,34.55
2023-08-05T08:45:11.367Z,34.58
2023-08-05T08:50:18.052Z,34.75
2023-08-05T08:55:27.382Z,34.81
2023-08-05T09:00:39.248Z,34.84
2023-08-05T09:05:50.900Z,34.49
2023-08-05T09:10:56.429Z,34.55
2023-08-05T09:16:01.764Z,34.57
2023-08-05T09:21:07.784Z,34.62
2023-08-05T09:26:13.816Z,34.70
2023-08-05T09:31:19.871Z,34.74
2023-08-05T09:36:26.237Z,34.69
2023-08-05T09:41:33.938Z,34.43
2023-08-05T09:47:06.191Z,34.60
2023-08-05T09:52:13.835Z,34.62
2023-08-05T09:57:21.844Z,34.79
2023-08-05T10:02:28.259Z,34.80
2023-08-05T10:07:33.888Z,34.85
2023-08-05T10:12:43.931Z,34.88
2023-08-05T10:17:50.837Z,34.74
2023-08-05T10:23:10.657Z,34.55
2023-08-05T10:28:25.791Z,34.70
2023-08-05T10:33:31.846Z,34.66
2023-08-05T10:38:44.806Z,34.73
2023-08-05T10:43:50.598Z,34.71
2023-08-05T10:48:56.297Z,34.57
2023-08-05T10:54:02.199Z,34.63
2023-08-05T10:59:07.856Z,34.61
2023-08-05T11:04:32.956Z,34.51
2023-08-05T11:09:38.698Z,34.62
2023-08-05T11:14:43.423Z,34.46
2023-08-05T11:19:56.772Z,34.52
2023-08-05T11:25:04.607Z,34.52
2023-08-05T11:30:14.906Z,34.42
2023-08-05T11:35:21.062Z,34.50
2023-08-05T11:40:29.561Z,34.44
2023-08-05T11:46:06.964Z,34.54
2023-08-05T11:51:12.294Z,34.54
2023-08-05T11:56:25.296Z,34.60
2023-08-05T12:01:31.036Z,34.52
2023-08-05T12:06:36.645Z,34.57
2023-08-05T12:11:59.279Z,34.48
2023-08-05T12:17:05.449Z,34.44
2023-08-05T12:22:11.157Z,34.38
2023-08-05T12:27:17.554Z,34.37
2023-08-05T12:32:22.986Z,34.13
2023-08-05T12:37:28.376Z,34.06
2023-08-05T12:42:34.528Z,34.19
2023-08-05T12:47:41.160Z,34.23
2023-08-05T12:52:46.881Z,34.21
2023-08-05T12:57:53.078Z,34.24
2023-08-05T13:02:58.766Z,34.23
2023-08-05T13:08:04.170Z,34.14
2023-08-05T13:13:09.659Z,34.19
2023-08-05T13:18:15.094Z,34.22
2023-08-05T13:23:20.747Z,34.15
2023-08-05T13:28:26.350Z,34.14
2023-08-05T13:33:32.382Z,34.14
2023-08-05T13:38:38.020Z,34.09
2023-08-05T13:43:44.394Z,34.07
2023-08-05T13:48:50.074Z,34.03
2023-08-05T13:54:01.664Z,34.00
2023-08-05T13:59:07.133Z,33.91
2023-08-05T14:04:12.669Z,33.89
2023-08-05T14:09:18.065Z,33.86
2023-08-05T14:14:24.498Z,33.75
2023-08-05T14:19:30.104Z,33.73
2023-08-05T14:24:35.408Z,33.68
2023-08-05T14:29:41.064Z,33.66
2023-08-05T14:34:49.942Z,33.58
2023-08-05T14:40:01.742Z,33.53
2023-08-05T14:45:10.040Z,33.48
2023-08-05T14:50:15.742Z,33.48
2023-08-05T14:55:21.420Z,33.41
2023-08-05T15:00:26.703Z,33.31
2023-08-05T15:05:31.995Z,33.24
2023-08-05T15:10:37.721Z,33.18
2023-08-05T15:15:50.799Z,33.07
2023-08-05T15:20:56.421Z,32.95
2023-08-05T15:26:05.513Z,32.81
2023-08-05T15:31:20.581Z,32.74
2023-08-05T15:36:26.114Z,32.59
2023-08-05T15:41:32.456Z,32.44
2023-08-05T15:46:38.234Z,32.30
2023-08-05T15:51:43.827Z,32.18
2023-08-05T15:56:49.335Z,32.02
2023-08-05T16:01:54.948Z,31.87
2023-08-05T16:07:00.552Z,31.72
2023-08-05T16:12:06.500Z,31.49
2023-08-05T16:17:12.238Z,31.24
2023-08-05T16:22:17.830Z,30.91
2023-08-05T16:27:23.276Z,30.60
2023-08-05T16:32:29.324Z,30.27
2023-08-05T16:37:34.738Z,30.03
2023-08-05T16:42:40.100Z,29.77
2023-08-05T16:47:45.646Z,29.51
2023-08-05T16:52:51.103Z,29.31
2023-08-05T16:57:56.898Z,29.10
2023-08-05T17:03:02.712Z,28.94
2023-08-05T17:08:08.213Z,28.85
2023-08-05T17:13:13.930Z,28.77
2023-08-05T17:18:19.776Z,28.65
2023-08-05T17:23:25.877Z,28.56
2023-08-05T17:28:31.364Z,28.52
2023-08-05T17:33:37.002Z,28.47
2023-08-05T17:38:42.668Z,28.34
2023-08-05T17:43:48.288Z,28.17
2023-08-05T17:48:53.941Z,28.04
2023-08-05T17:53:59.609Z,27.95
2023-08-05T17:59:05.222Z,27.77
2023-08-05T18:04:11.997Z,27.56
2023-08-05T18:09:17.694Z,27.43
2023-08-05T18:14:23.282Z,27.30
2023-08-05T18:19:28.937Z,27.21
2023-08-05T18:24:34.332Z,27.25
2023-08-05T18:29:40.097Z,27.30
2023-08-05T18:34:45.761Z,27.25
2023-08-05T18:39:51.514Z,27.28
2023-08-05T18:44:57.237Z,27.30
2023-08-05T18:50:02.802Z,27.28
2023-08-05T18:55:09.893Z,27.21
2023-08-05T19:00:15.766Z,27.07
2023-08-05T19:05:21.335Z,26.92
2023-08-05T19:10:26.971Z,26.92
2023-08-05T19:15:32.722Z,26.99
2023-08-05T19:20:38.672Z,26.97
2023-08-05T19:25:44.706Z,26.90
2023-08-05T19:30:50.398Z,26.87
2023-08-05T19:35:56.543Z,26.87
2023-08-05T19:41:03.590Z,26.86
2023-08-05T19:46:10.894Z,26.80
2023-08-05T19:51:16.551Z,26.76
2023-08-05T19:56:22.273Z,26.79
2023-08-05T20:01:28.066Z,26.76
2023-08-05T20:06:33.879Z,26.75
2023-08-05T20:11:39.365Z,26.72
2023-08-05T20:16:45.116Z,26.68
2023-08-05T20:21:51.737Z,26.67
2023-08-05T20:26:57.560Z,26.64
2023-08-05T20:32:03.220Z,26.61
2023-08-05T20:37:08.852Z,26.61
2023-08-05T20:42:14.509Z,26.57
2023-08-05T20:47:20.102Z,26.57
2023-08-05T20:52:25.874Z,26.65
2023-08-05T20:57:31.456Z,26.59
2023-08-05T21:02:36.870Z,26.69
2023-08-05T21:07:43.675Z,26.68
2023-08-05T21:12:49.258Z,26.70
2023-08-05T21:17:54.988Z,26.72
2023-08-05T21:23:00.712Z,26.69
2023-08-05T21:28:06.336Z,26.66
2023-08-05T21:33:11.934Z,26.61
2023-08-05T21:38:17.425Z,26.60
2023-08-05T21:43:23.424Z,26.63
2023-08-05T21:48:31.599Z,26.65
2023-08-05T21:53:37.489Z,26.64
2023-08-05T21:58:43.142Z,26.64
2023-08-05T22:03:48.877Z,26.68
2023-08-05T22:08:54.615Z,26.65
2023-08-05T22:14:00.146Z,26.69
2023-08-05T22:19:05.970Z,26.65
2023-08-05T22:24:12.133Z,26.50
2023-08-05T22:29:19.145Z,26.43
2023-08-05T22:34:24.772Z,26.39
2023-08-05T22:39:30.219Z,26.35
2023-08-05T22:44:35.804Z,26.32
2023-08-05T22:49:41.461Z,26.35
2023-08-05T22:54:47.309Z,26.34
2023-08-05T22:59:56.329Z,26.33
2023-08-05T23:05:01.791Z,26.31
2023-08-05T23:10:09.715Z,26.25
2023-08-05T23:15:15.708Z,26.21
2023-08-05T23:20:21.428Z,26.12
2023-08-05T23:25:27.216Z,26.06
2023-08-05T23:30:33.010Z,25.99
2023-08-05T23:35:41.951Z,26.02
2023-08-05T23:40:47.518Z,25.98
2023-08-05T23:45:53.127Z,25.93
2023-08-05T23:50:58.706Z,25.91
2023-08-05T23:56:04.334Z,25.87
